createdAt,value
2023-07-21T00:08:46.573Z,5.20
2023-07-21T00:19:10.975Z,6.40
2023-07-21T00:29:55.502Z,5.20
2023-07-21T00:40:00.160Z,6.90
2023-07-21T00:50:04.487Z,5.00
2023-07-21T01:00:14.278Z,5.80
2023-07-21T01:10:27.025Z,7.10
2023-07-21T01:21:32.702Z,6.70
2023-07-21T01:32:17.167Z,6.40
2023-07-21T01:43:22.067Z,4.40
2023-07-21T01:54:06.926Z,4.50
2023-07-21T02:05:14.162Z,4.70
2023-07-21T02:16:21.699Z,5.20
2023-07-21T02:27:26.143Z,5.40
2023-07-21T02:39:31.550Z,5.40
2023-07-21T02:50:36.300Z,5.20
2023-07-21T03:00:42.090Z,10.90
2023-07-21T03:11:01.871Z,3.80
2023-07-21T03:21:07.585Z,3.80
2023-07-21T03:31:13.349Z,3.50
2023-07-21T03:42:30.424Z,3.20
2023-07-21T03:53:36.746Z,3.00
2023-07-21T04:04:04.898Z,4.00
2023-07-21T04:14:14.778Z,3.10
2023-07-21T04:24:18.752Z,2.60
2023-07-21T04:34:29.292Z,2.30
2023-07-21T04:44:33.828Z,2.50
2023-07-21T04:54:39.963Z,1.90
2023-07-21T05:04:45.674Z,1.50
2023-07-21T05:14:59.030Z,1.00
2023-07-21T05:25:18.736Z,0.70
2023-07-21T05:35:43.025Z,1.60
2023-07-21T05:46:08.108Z,0.90
2023-07-21T05:56:47.701Z,0.90
2023-07-21T06:08:32.583Z,1.10
2023-07-21T06:19:05.329Z,1.40
2023-07-21T06:29:18.534Z,1.70
2023-07-21T06:39:42.660Z,1.50
2023-07-21T06:50:03.151Z,1.60
2023-07-21T07:00:09.723Z,2.50
2023-07-21T07:10:13.926Z,1.50
2023-07-21T07:20:18.209Z,1.60
2023-07-21T07:31:22.610Z,1.60
2023-07-21T07:41:46.540Z,1.60
2023-07-21T07:52:51.388Z,1.20
2023-07-21T08:03:38.673Z,1.30
2023-07-21T08:14:23.250Z,1.20
2023-07-21T08:24:27.367Z,1.40
2023-07-21T08:35:12.313Z,1.20
2023-07-21T08:46:17.009Z,1.30
2023-07-21T08:56:41.246Z,1.20
2023-07-21T09:06:59.748Z,1.30
2023-07-21T09:18:07.436Z,1.60
2023-07-21T09:28:59.926Z,1.30
2023-07-21T09:39:24.246Z,1.00
2023-07-21T09:50:28.810Z,1.20
2023-07-21T10:00:55.676Z,1.00
2023-07-21T10:11:19.718Z,1.30
2023-07-21T10:21:54.647Z,1.00
2023-07-21T10:32:59.290Z,1.10
2023-07-21T10:43:23.411Z,1.10
2023-07-21T10:53:42.760Z,1.10
2023-07-21T11:03:52.447Z,1.10
2023-07-21T11:14:42.449Z,0.80
2023-07-21T11:25:11.283Z,0.90
2023-07-21T11:35:34.289Z,1.10
2023-07-21T11:46:00.043Z,1.00
2023-07-21T11:56:07.108Z,1.00
2023-07-21T12:07:11.731Z,0.90
2023-07-21T12:18:05.831Z,0.90
2023-07-21T12:28:10.111Z,0.90
2023-07-21T12:39:14.788Z,1.00
2023-07-21T12:49:19.434Z,1.30
2023-07-21T13:00:23.867Z,1.40
2023-07-21T13:11:08.630Z,1.20
2023-07-21T13:21:13.024Z,1.00
2023-07-21T13:31:20.881Z,1.30
2023-07-21T13:42:26.400Z,1.10
2023-07-21T13:53:10.842Z,1.00
2023-07-21T14:04:15.622Z,1.20
2023-07-21T14:14:22.270Z,0.80
2023-07-21T14:24:38.174Z,1.00
2023-07-21T14:34:45.489Z,0.80
2023-07-21T14:45:29.934Z,4.70
2023-07-21T14:55:36.716Z,1.50
2023-07-21T15:05:41.044Z,1.00
2023-07-21T15:15:45.411Z,1.20
2023-07-21T15:25:50.590Z,1.20
2023-07-21T15:36:34.923Z,1.10
2023-07-21T15:47:19.195Z,1.30
2023-07-21T15:57:25.949Z,1.10
2023-07-21T16:07:29.895Z,1.20
2023-07-21T16:18:03.249Z,1.20
2023-07-21T16:28:07.426Z,1.60
2023-07-21T16:38:12.330Z,2.10
2023-07-21T16:48:16.482Z,1.40
2023-07-21T16:58:22.880Z,1.30
2023-07-21T17:08:26.774Z,2.20
2023-07-21T17:18:33.965Z,2.40
2023-07-21T17:28:40.825Z,2.20
2023-07-21T17:39:28.502Z,1.90
2023-07-21T17:49:32.380Z,1.60
2023-07-21T17:59:36.249Z,4.90
2023-07-21T18:10:20.690Z,1.60
2023-07-21T18:21:08.312Z,1.50
2023-07-21T18:31:12.389Z,1.90
2023-07-21T18:41:19.707Z,2.60
2023-07-21T18:52:03.952Z,4.00
2023-07-21T19:02:08.051Z,3.30
2023-07-21T19:12:17.764Z,3.10
2023-07-21T19:23:02.167Z,3.60
2023-07-21T19:33:06.653Z,3.40
2023-07-21T19:43:10.732Z,2.80
2023-07-21T19:53:15.468Z,3.00
2023-07-21T20:03:59.760Z,5.60
2023-07-21T20:14:03.708Z,5.60
2023-07-21T20:24:07.643Z,5.30
2023-07-21T20:34:11.578Z,4.80
2023-07-21T20:45:16.086Z,4.50
2023-07-21T20:56:20.327Z,3.80
2023-07-21T21:06:25.154Z,3.60
2023-07-21T21:17:30.039Z,3.10
2023-07-21T21:27:35.136Z,3.20
2023-07-21T21:38:19.334Z,3.00
2023-07-21T21:48:24.809Z,3.20
2023-07-21T21:58:33.556Z,3.40
2023-07-21T22:08:47.179Z,3.10
2023-07-21T22:18:51.342Z,3.00
2023-07-21T22:29:16.003Z,3.30
2023-07-21T22:40:00.363Z,3.20
2023-07-21T22:51:05.079Z,3.10
2023-07-21T23:01:58.407Z,3.40
2023-07-21T23:12:03.044Z,3.70
2023-07-21T23:22:07.018Z,3.20
2023-07-21T23:33:11.527Z,3.10
2023-07-21T23:44:16.093Z,3.20
2023-07-21T23:54:19.830Z,3.80
